Time,TemperatureF,DewpointF,PressureIn,WindDirection,WindDirectionDegrees,WindSpeedMPH,WindSpeedGustMPH,Humidity,HourlyPrecipIn,Conditions,Clouds,dailyrainin,SoftwareType,DateUTC
2013-01-20 00:07:00,25.9,19.6,30.14,WSW,248,1.6,1.6,77,0.00,,,0.00,WUHU216HW,2013-01-20 07:07:00,
2013-01-20 00:17:00,25.4,18.8,30.14,West,270,3.4,3.4,76,0.00,,,0.00,WUHU216HW,2013-01-20 07:17:00,
2013-01-20 00:27:00,24.8,18.6,30.14,SW,225,0.9,1.8,77,0.00,,,0.00,WUHU216HW,2013-01-20 07:27:00,
2013-01-20 00:37:00,24.3,18.5,30.14,South,180,2.5,2.9,78,0.00,,,0.00,WUHU216HW,2013-01-20 07:37:00,
2013-01-20 00:47:00,23.9,18.1,30.14,SSW,203,1.6,2.5,78,0.00,,,0.00,WUHU216HW,2013-01-20 07:47:00,
2013-01-20 00:58:00,24.1,18.5,30.14,South,180,3.8,4.3,79,0.00,,,0.00,WUHU216HW,2013-01-20 07:58:00,
2013-01-20 01:08:00,23.9,18.4,30.14,SE,135,3.8,4.0,79,0.00,,,0.00,WUHU216HW,2013-01-20 08:08:00,
2013-01-20 01:18:00,24.1,18.5,30.14,South,180,4.7,4.7,79,0.00,,,0.00,WUHU216HW,2013-01-20 08:18:00,
2013-01-20 01:28:00,24.3,18.7,30.14,SSE,158,4.7,5.4,79,0.00,,,0.00,WUHU216HW,2013-01-20 08:28:00,
2013-01-20 01:38:00,24.5,18.9,30.14,SSE,158,3.4,5.6,79,0.00,,,0.00,WUHU216HW,2013-01-20 08:38:00,
2013-01-20 01:48:00,24.7,19.1,30.14,ENE,68,0.9,3.8,79,0.00,,,0.00,WUHU216HW,2013-01-20 08:48:00,
2013-01-20 01:58:00,24.5,18.6,30.14,SSW,203,2.0,2.0,78,0.00,,,0.00,WUHU216HW,2013-01-20 08:58:00,
2013-01-20 02:08:00,24.3,18.5,30.14,SSE,158,4.0,4.9,78,0.00,,,0.00,WUHU216HW,2013-01-20 09:08:00,
2013-01-20 02:18:00,23.9,18.1,30.14,SE,135,0.0,4.0,78,0.00,,,0.00,WUHU216HW,2013-01-20 09:18:00,
2013-01-20 02:28:00,23.8,17.7,30.15,WSW,248,0.4,2.5,77,0.00,,,0.00,WUHU216HW,2013-01-20 09:28:00,
2013-01-20 02:38:00,23.6,17.5,30.15,ENE,68,1.1,3.1,77,0.00,,,0.00,WUHU216HW,2013-01-20 09:38:00,
2013-01-20 02:48:00,23.2,17.1,30.16,South,180,1.1,1.1,77,0.00,,,0.00,WUHU216HW,2013-01-20 09:48:00,
2013-01-20 02:58:00,23.2,17.1,30.16,SSE,158,1.8,2.5,77,0.00,,,0.00,WUHU216HW,2013-01-20 09:58:00,
2013-01-20 03:08:00,22.9,16.8,30.16,South,180,2.9,5.6,77,0.00,,,0.00,WUHU216HW,2013-01-20 10:08:00,
2013-01-20 03:18:00,22.7,16.6,30.16,SSE,158,3.4,4.5,77,0.00,,,0.00,WUHU216HW,2013-01-20 10:18:00,
2013-01-20 03:28:00,22.5,16.7,30.16,SSE,158,2.5,5.4,78,0.00,,,0.00,WUHU216HW,2013-01-20 10:28:00,
2013-01-20 03:38:00,22.7,16.8,30.16,South,180,3.6,5.1,78,0.00,,,0.00,WUHU216HW,2013-01-20 10:38:00,
2013-01-20 03:49:00,22.7,16.8,30.16,SSW,203,4.0,4.0,78,0.00,,,0.00,WUHU216HW,2013-01-20 10:49:00,
2013-01-20 03:59:00,22.7,16.6,30.15,South,180,1.8,4.3,77,0.00,,,0.00,WUHU216HW,2013-01-20 10:59:00,
2013-01-20 04:09:00,22.7,16.8,30.16,ENE,68,0.0,0.7,78,0.00,,,0.00,WUHU216HW,2013-01-20 11:09:00,
2013-01-20 04:19:00,22.3,16.2,30.16,SSE,158,2.7,2.9,77,0.00,,,0.00,WUHU216HW,2013-01-20 11:19:00,
2013-01-20 04:29:00,22.3,16.5,30.16,South,180,1.8,3.6,78,0.00,,,0.00,WUHU216HW,2013-01-20 11:29:00,
2013-01-20 04:39:00,22.5,16.7,30.16,SSW,203,0.0,2.5,78,0.00,,,0.00,WUHU216HW,2013-01-20 11:39:00,
2013-01-20 04:49:00,22.5,16.7,30.16,East,90,0.0,0.4,78,0.00,,,0.00,WUHU216HW,2013-01-20 11:49:00,
2013-01-20 04:59:00,22.1,16.3,30.17,WNW,293,0.0,0.4,78,0.00,,,0.00,WUHU216HW,2013-01-20 11:59:00,
2013-01-20 05:09:00,22.0,16.1,30.17,SW,225,0.4,1.1,78,0.00,,,0.00,WUHU216HW,2013-01-20 12:09:00,
2013-01-20 05:19:00,21.6,15.8,30.17,SE,135,0.2,1.1,78,0.00,,,0.00,WUHU216HW,2013-01-20 12:19:00,
2013-01-20 05:29:00,21.8,15.9,30.17,SE,135,0.9,0.9,78,0.00,,,0.00,WUHU216HW,2013-01-20 12:29:00,
2013-01-20 05:39:00,22.0,16.1,30.17,SSW,203,0.0,0.9,78,0.00,,,0.00,WUHU216HW,2013-01-20 12:39:00,
2013-01-20 05:49:00,22.1,16.3,30.17,SW,225,0.2,0.7,78,0.00,,,0.00,WUHU216HW,2013-01-20 12:49:00,
2013-01-20 05:59:00,22.0,16.1,30.17,SW,225,0.2,0.2,78,0.00,,,0.00,WUHU216HW,2013-01-20 12:59:00,
2013-01-20 06:09:00,22.0,16.1,30.16,ESE,113,0.2,0.7,78,0.00,,,0.00,WUHU216HW,2013-01-20 13:09:00,
2013-01-20 06:19:00,22.1,16.7,30.16,ESE,113,0.0,0.0,79,0.00,,,0.00,WUHU216HW,2013-01-20 13:19:00,
2013-01-20 06:30:00,22.1,16.7,30.16,WNW,293,0.0,0.7,79,0.00,,,0.00,WUHU216HW,2013-01-20 13:30:00,
2013-01-20 06:40:00,22.0,16.5,30.16,North,0,0.0,0.9,79,0.00,,,0.00,WUHU216HW,2013-01-20 13:40:00,
2013-01-20 06:50:00,21.8,15.9,30.17,NNE,23,0.0,0.4,78,0.00,,,0.00,WUHU216HW,2013-01-20 13:50:00,
2013-01-20 07:00:00,21.4,15.6,30.17,SSE,158,0.0,0.9,78,0.00,,,0.00,WUHU216HW,2013-01-20 14:00:00,
2013-01-20 07:10:00,21.2,15.8,30.17,SE,135,0.0,0.7,79,0.00,,,0.00,WUHU216HW,2013-01-20 14:10:00,
2013-01-20 07:20:00,21.2,15.8,30.17,SSE,158,0.0,0.9,79,0.00,,,0.00,WUHU216HW,2013-01-20 14:20:00,
2013-01-20 07:30:00,20.9,15.4,30.17,WNW,293,0.0,0.7,79,0.00,,,0.00,WUHU216HW,2013-01-20 14:30:00,
2013-01-20 07:40:00,20.5,15.0,30.17,SE,135,0.0,0.4,79,0.00,,,0.00,WUHU216HW,2013-01-20 14:40:00,
2013-01-20 07:50:00,20.5,15.0,30.17,SE,135,0.0,0.0,79,0.00,,,0.00,WUHU216HW,2013-01-20 14:50:00,
2013-01-20 08:00:00,20.3,15.1,30.17,SE,135,0.0,0.0,80,0.00,,,0.00,WUHU216HW,2013-01-20 15:00:00,
2013-01-20 08:10:00,20.3,15.1,30.18,ENE,68,0.0,0.2,80,0.00,,,0.00,WUHU216HW,2013-01-20 15:10:00,
2013-01-20 08:20:00,20.2,14.9,30.19,NW,315,0.0,0.4,80,0.00,,,0.00,WUHU216HW,2013-01-20 15:20:00,
2013-01-20 08:30:00,20.0,14.8,30.19,NW,315,0.0,0.0,80,0.00,,,0.00,WUHU216HW,2013-01-20 15:30:00,
2013-01-20 08:40:00,19.8,14.6,30.19,SSW,203,0.7,0.9,80,0.00,,,0.00,WUHU216HW,2013-01-20 15:40:00,
2013-01-20 08:50:00,19.8,14.6,30.18,SSE,158,0.0,0.4,80,0.00,,,0.00,WUHU216HW,2013-01-20 15:50:00,
2013-01-20 09:00:00,19.8,14.6,30.18,SSE,158,0.0,0.0,80,0.00,,,0.00,WUHU216HW,2013-01-20 16:00:00,
2013-01-20 09:10:00,20.2,15.2,30.18,SE,135,0.2,0.2,81,0.00,,,0.00,WUHU216HW,2013-01-20 16:10:00,
2013-01-20 09:21:00,20.5,15.6,30.19,ENE,68,0.2,0.4,81,0.00,,,0.00,WUHU216HW,2013-01-20 16:21:00,
2013-01-20 09:31:00,21.1,16.4,30.19,NNE,23,0.0,0.2,82,0.00,,,0.00,WUHU216HW,2013-01-20 16:31:00,
2013-01-20 09:41:00,21.4,16.7,30.18,South,180,0.0,0.7,82,0.00,,,0.00,WUHU216HW,2013-01-20 16:41:00,
2013-01-20 09:51:00,22.0,17.0,30.19,South,180,0.0,0.0,81,0.00,,,0.00,WUHU216HW,2013-01-20 16:51:00,
2013-01-20 10:01:00,22.7,17.7,30.19,NE,45,0.4,0.9,81,0.00,,,0.00,WUHU216HW,2013-01-20 17:01:00,
2013-01-20 10:11:00,23.4,18.2,30.20,NNE,23,0.0,0.2,80,0.00,,,0.00,WUHU216HW,2013-01-20 17:11:00,
2013-01-20 10:21:00,23.8,18.5,30.20,West,270,0.0,0.7,80,0.00,,,0.00,WUHU216HW,2013-01-20 17:21:00,
2013-01-20 10:31:00,24.3,19.1,30.19,NE,45,0.0,1.3,80,0.00,,,0.00,WUHU216HW,2013-01-20 17:31:00,
2013-01-20 10:41:00,24.8,19.3,30.20,WNW,293,1.1,1.3,79,0.00,,,0.00,WUHU216HW,2013-01-20 17:41:00,
2013-01-20 10:51:00,25.2,19.6,30.20,NNW,338,0.0,2.0,79,0.00,,,0.00,WUHU216HW,2013-01-20 17:51:00,
2013-01-20 11:01:00,26.1,20.2,30.20,NNW,338,0.0,1.1,78,0.00,,,0.00,WUHU216HW,2013-01-20 18:01:00,
2013-01-20 11:11:00,26.8,20.8,30.20,West,270,0.4,0.4,78,0.00,,,0.00,WUHU216HW,2013-01-20 18:11:00,
2013-01-20 11:21:00,27.0,20.7,30.20,North,0,0.7,1.6,77,0.00,,,0.00,WUHU216HW,2013-01-20 18:21:00,
2013-01-20 11:31:00,27.4,21.1,30.20,North,0,0.4,1.1,77,0.00,,,0.00,WUHU216HW,2013-01-20 18:31:00,
2013-01-20 11:41:00,27.9,21.2,30.19,West,270,0.4,1.3,76,0.00,,,0.00,WUHU216HW,2013-01-20 18:41:00,
2013-01-20 11:51:00,28.8,22.1,30.19,NE,45,0.0,0.2,76,0.00,,,0.00,WUHU216HW,2013-01-20 18:51:00,
2013-01-20 12:01:00,29.7,22.7,30.18,NNE,23,0.0,0.0,75,0.00,,,0.00,WUHU216HW,2013-01-20 19:01:00,
2013-01-20 12:12:00,30.4,23.4,30.18,West,270,0.2,1.3,75,0.00,,,0.00,WUHU216HW,2013-01-20 19:12:00,
2013-01-20 12:22:00,31.1,23.8,30.18,North,0,0.4,0.9,74,0.00,,,0.00,WUHU216HW,2013-01-20 19:22:00,
2013-01-20 12:32:00,31.9,24.2,30.17,NNW,338,0.4,0.7,73,0.00,,,0.00,WUHU216HW,2013-01-20 19:32:00,
2013-01-20 12:42:00,32.6,24.6,30.17,NNW,338,0.7,1.3,72,0.00,,,0.00,WUHU216HW,2013-01-20 19:42:00,
2013-01-20 12:52:00,32.6,24.2,30.16,West,270,0.0,1.3,71,0.00,,,0.00,WUHU216HW,2013-01-20 19:52:00,
2013-01-20 13:02:00,33.1,24.7,30.16,WNW,293,0.2,1.1,71,0.00,,,0.00,WUHU216HW,2013-01-20 20:02:00,
2013-01-20 13:12:00,33.7,24.8,30.16,North,0,1.1,1.1,70,0.00,,,0.00,WUHU216HW,2013-01-20 20:12:00,
2013-01-20 13:22:00,34.0,25.2,30.15,North,0,0.4,1.3,70,0.00,,,0.00,WUHU216HW,2013-01-20 20:22:00,
2013-01-20 13:32:00,34.6,25.7,30.15,WNW,293,0.0,1.1,70,0.00,,,0.00,WUHU216HW,2013-01-20 20:32:00,
2013-01-20 13:42:00,35.3,26.1,30.15,NNE,23,0.7,1.1,69,0.00,,,0.00,WUHU216HW,2013-01-20 20:42:00,
2013-01-20 13:52:00,36.0,26.5,30.14,NW,315,0.0,0.9,68,0.00,,,0.00,WUHU216HW,2013-01-20 20:52:00,
2013-01-20 14:02:00,36.0,26.1,30.14,WNW,293,2.2,2.2,67,0.00,,,0.00,WUHU216HW,2013-01-20 21:02:00,
2013-01-20 14:12:00,35.3,25.4,30.14,NNW,338,1.1,1.8,67,0.00,,,0.00,WUHU216HW,2013-01-20 21:12:00,
2013-01-20 14:22:00,35.1,25.2,30.14,North,0,0.7,1.8,67,0.00,,,0.00,WUHU216HW,2013-01-20 21:22:00,
2013-01-20 14:32:00,35.1,25.2,30.14,NNW,338,1.1,3.4,67,0.00,,,0.00,WUHU216HW,2013-01-20 21:32:00,
2013-01-20 14:42:00,35.3,25.4,30.13,NNE,23,0.4,1.8,67,0.00,,,0.00,WUHU216HW,2013-01-20 21:42:00,
2013-01-20 14:52:00,35.3,25.0,30.14,NNW,338,1.6,2.2,66,0.00,,,0.00,WUHU216HW,2013-01-20 21:52:00,
2013-01-20 15:03:00,35.3,25.4,30.14,NW,315,2.2,2.7,67,0.00,,,0.00,WUHU216HW,2013-01-20 22:03:00,
2013-01-20 15:13:00,35.1,25.2,30.13,NW,315,1.1,2.2,67,0.00,,,0.00,WUHU216HW,2013-01-20 22:13:00,
2013-01-20 15:23:00,35.1,25.2,30.13,NNE,23,0.7,1.6,67,0.00,,,0.00,WUHU216HW,2013-01-20 22:23:00,
2013-01-20 15:33:00,34.9,25.0,30.13,NW,315,1.8,1.8,67,0.00,,,0.00,WUHU216HW,2013-01-20 22:33:00,
2013-01-20 15:43:00,34.7,25.2,30.13,NW,315,0.4,1.8,68,0.00,,,0.00,WUHU216HW,2013-01-20 22:43:00,
2013-01-20 15:53:00,34.7,25.2,30.13,WNW,293,0.7,0.9,68,0.00,,,0.00,WUHU216HW,2013-01-20 22:53:00,
2013-01-20 16:03:00,34.9,25.4,30.13,NW,315,0.0,1.1,68,0.00,,,0.00,WUHU216HW,2013-01-20 23:03:00,
2013-01-20 16:13:00,34.7,25.2,30.13,NW,315,0.4,0.7,68,0.00,,,0.00,WUHU216HW,2013-01-20 23:13:00,
2013-01-20 16:24:00,34.6,25.0,30.13,NNW,338,0.4,0.7,68,0.00,,,0.00,WUHU216HW,2013-01-20 23:24:00,
2013-01-20 16:34:00,34.2,24.7,30.13,NW,315,0.4,1.1,68,0.00,,,0.00,WUHU216HW,2013-01-20 23:34:00,
2013-01-20 16:44:00,34.2,25.0,30.12,North,0,0.0,0.4,69,0.00,,,0.00,WUHU216HW,2013-01-20 23:44:00,
2013-01-20 16:54:00,34.2,25.0,30.12,WNW,293,0.4,0.9,69,0.00,,,0.00,WUHU216HW,2013-01-20 23:54:00,
2013-01-20 17:04:00,33.5,24.3,30.13,SSE,158,0.0,1.1,69,0.00,,,0.00,WUHU216HW,2013-01-21 00:04:00,
2013-01-20 17:14:00,32.9,24.2,30.13,SE,135,0.9,1.1,70,0.00,,,0.00,WUHU216HW,2013-01-21 00:14:00,
2013-01-20 17:24:00,32.4,23.8,30.13,SW,225,0.0,0.9,70,0.00,,,0.00,WUHU216HW,2013-01-21 00:24:00,
2013-01-20 17:34:00,31.9,22.9,30.13,South,180,1.1,1.1,69,0.00,,,0.00,WUHU216HW,2013-01-21 00:34:00,
2013-01-20 17:44:00,31.9,23.2,30.12,SE,135,0.0,1.6,70,0.00,,,0.00,WUHU216HW,2013-01-21 00:44:00,
2013-01-20 17:54:00,31.7,23.0,30.12,WNW,293,0.0,1.6,70,0.00,,,0.00,WUHU216HW,2013-01-21 00:54:00,
2013-01-20 18:04:00,31.9,23.2,30.12,SE,135,0.0,0.9,70,0.00,,,0.00,WUHU216HW,2013-01-21 01:04:00,
2013-01-20 18:14:00,32.0,23.0,30.12,ESE,113,1.8,1.8,69,0.00,,,0.00,WUHU216HW,2013-01-21 01:14:00,
2013-01-20 18:24:00,31.9,22.9,30.12,NNE,23,0.0,1.1,69,0.00,,,0.00,WUHU216HW,2013-01-21 01:24:00,
2013-01-20 18:35:00,31.9,22.9,30.13,NE,45,0.0,0.4,69,0.00,,,0.00,WUHU216HW,2013-01-21 01:35:00,
2013-01-20 18:45:00,32.0,23.0,30.13,East,90,0.0,0.7,69,0.00,,,0.00,WUHU216HW,2013-01-21 01:45:00,
2013-01-20 18:55:00,31.9,22.9,30.13,West,270,0.7,1.8,69,0.00,,,0.00,WUHU216HW,2013-01-21 01:55:00,
2013-01-20 19:05:00,31.7,22.7,30.13,WSW,248,0.4,1.1,69,0.00,,,0.00,WUHU216HW,2013-01-21 02:05:00,
2013-01-20 19:15:00,31.5,22.5,30.13,ESE,113,0.4,0.4,69,0.00,,,0.00,WUHU216HW,2013-01-21 02:15:00,
2013-01-20 19:25:00,31.3,22.3,30.13,SSW,203,0.9,1.8,69,0.00,,,0.00,WUHU216HW,2013-01-21 02:25:00,
2013-01-20 19:35:00,31.5,22.5,30.13,SSE,158,0.0,0.2,69,0.00,,,0.00,WUHU216HW,2013-01-21 02:35:00,
2013-01-20 19:45:00,31.5,22.5,30.13,WSW,248,1.8,1.8,69,0.00,,,0.00,WUHU216HW,2013-01-21 02:45:00,
2013-01-20 19:55:00,31.1,22.1,30.13,SSE,158,0.0,1.1,69,0.00,,,0.00,WUHU216HW,2013-01-21 02:55:00,
2013-01-20 20:05:00,31.1,22.5,30.13,SSW,203,1.3,1.8,70,0.00,,,0.00,WUHU216HW,2013-01-21 03:05:00,
2013-01-20 20:15:00,31.0,22.0,30.13,SSW,203,2.0,3.4,69,0.00,,,0.00,WUHU216HW,2013-01-21 03:15:00,
2013-01-20 20:25:00,30.8,22.1,30.13,NNE,23,0.9,2.9,70,0.00,,,0.00,WUHU216HW,2013-01-21 03:25:00,
2013-01-20 20:35:00,30.8,22.1,30.13,SE,135,0.2,0.9,70,0.00,,,0.00,WUHU216HW,2013-01-21 03:35:00,
2013-01-20 20:45:00,30.2,21.6,30.13,SE,135,0.0,0.0,70,0.00,,,0.00,WUHU216HW,2013-01-21 03:45:00,
2013-01-20 20:55:00,29.9,21.2,30.13,West,270,0.0,1.6,70,0.00,,,0.00,WUHU216HW,2013-01-21 03:55:00,
2013-01-20 21:05:00,29.3,20.8,30.13,ESE,113,0.0,1.8,70,0.00,,,0.00,WUHU216HW,2013-01-21 04:05:00,
2013-01-20 21:16:00,29.2,20.6,30.13,SSW,203,0.0,1.8,70,0.00,,,0.00,WUHU216HW,2013-01-21 04:16:00,
2013-01-20 21:26:00,29.0,20.8,30.13,NNE,23,0.0,0.4,71,0.00,,,0.00,WUHU216HW,2013-01-21 04:26:00,
2013-01-20 21:36:00,28.8,20.6,30.13,SSW,203,0.9,2.2,71,0.00,,,0.00,WUHU216HW,2013-01-21 04:36:00,
2013-01-20 21:46:00,28.4,20.3,30.13,WSW,248,0.2,1.6,71,0.00,,,0.00,WUHU216HW,2013-01-21 04:46:00,
2013-01-20 21:56:00,28.4,20.6,30.12,SSW,203,1.1,2.0,72,0.00,,,0.00,WUHU216HW,2013-01-21 04:56:00,
2013-01-20 22:06:00,28.4,20.3,30.13,SE,135,0.4,1.6,71,0.00,,,0.00,WUHU216HW,2013-01-21 05:06:00,
2013-01-20 22:16:00,28.3,20.4,30.12,SSW,203,0.2,0.7,72,0.00,,,0.00,WUHU216HW,2013-01-21 05:16:00,
2013-01-20 22:26:00,28.3,20.4,30.13,SSW,203,1.8,1.8,72,0.00,,,0.00,WUHU216HW,2013-01-21 05:26:00,
2013-01-20 22:36:00,28.4,20.6,30.13,SSE,158,1.3,2.5,72,0.00,,,0.00,WUHU216HW,2013-01-21 05:36:00,
2013-01-20 22:46:00,28.3,20.4,30.13,SSW,203,1.6,1.6,72,0.00,,,0.00,WUHU216HW,2013-01-21 05:46:00,
2013-01-20 22:56:00,27.9,20.1,30.13,South,180,4.5,4.7,72,0.00,,,0.00,WUHU216HW,2013-01-21 05:56:00,
2013-01-20 23:06:00,27.7,19.9,30.12,South,180,2.5,4.3,72,0.00,,,0.00,WUHU216HW,2013-01-21 06:06:00,
2013-01-20 23:16:00,27.4,19.5,30.12,SW,225,2.5,4.7,72,0.00,,,0.00,WUHU216HW,2013-01-21 06:16:00,
2013-01-20 23:26:00,26.5,18.6,30.12,WNW,293,0.7,2.2,72,0.00,,,0.00,WUHU216HW,2013-01-21 06:26:00,
2013-01-20 23:37:00,26.3,18.5,30.12,NW,315,0.4,0.4,72,0.00,,,0.00,WUHU216HW,2013-01-21 06:37:00,
2013-01-20 23:47:00,26.1,18.3,30.12,NNW,338,0.0,0.4,72,0.00,,,0.00,WUHU216HW,2013-01-21 06:47:00,
2013-01-20 23:57:00,26.1,18.3,30.12,ESE,113,0.0,0.4,72,0.00,,,0.00,WUHU216HW,2013-01-21 06:57:00,